sensor_id;sensor_type;location;lat;lon;timestamp;P1;durP1;ratioP1;P2;durP2;ratioP2
51614;SDS011;37695;52.960;6.188;2023-02-28T00:00:16;6.18;;;2.67;;
51614;SDS011;37695;52.960;6.188;2023-02-28T00:02:43;6.45;;;2.85;;
51614;SDS011;37695;52.960;6.188;2023-02-28T00:05:10;4.93;;;2.78;;
51614;SDS011;37695;52.960;6.188;2023-02-28T00:07:36;4.68;;;2.40;;
51614;SDS011;37695;52.960;6.188;2023-02-28T00:10:03;8.05;;;2.92;;
51614;SDS011;37695;52.960;6.188;2023-02-28T00:12:31;6.55;;;2.97;;
51614;SDS011;37695;52.960;6.188;2023-02-28T00:14:57;5.25;;;2.63;;
51614;SDS011;37695;52.960;6.188;2023-02-28T00:17:22;6.13;;;2.63;;
51614;SDS011;37695;52.960;6.188;2023-02-28T00:19:48;4.53;;;2.50;;
51614;SDS011;37695;52.960;6.188;2023-02-28T00:22:17;4.95;;;3.10;;
51614;SDS011;37695;52.960;6.188;2023-02-28T00:24:44;8.38;;;2.92;;
51614;SDS011;37695;52.960;6.188;2023-02-28T00:27:10;6.97;;;3.28;;
51614;SDS011;37695;52.960;6.188;2023-02-28T00:29:36;4.32;;;2.35;;
51614;SDS011;37695;52.960;6.188;2023-02-28T00:32:02;5.05;;;2.35;;
51614;SDS011;37695;52.960;6.188;2023-02-28T00:34:28;6.53;;;2.50;;
51614;SDS011;37695;52.960;6.188;2023-02-28T00:36:54;4.68;;;2.80;;
51614;SDS011;37695;52.960;6.188;2023-02-28T00:39:19;9.13;;;2.85;;
51614;SDS011;37695;52.960;6.188;2023-02-28T00:41:45;6.95;;;3.13;;
51614;SDS011;37695;52.960;6.188;2023-02-28T00:44:10;6.07;;;2.80;;
51614;SDS011;37695;52.960;6.188;2023-02-28T00:46:36;6.95;;;2.88;;
51614;SDS011;37695;52.960;6.188;2023-02-28T00:49:02;5.68;;;2.70;;
51614;SDS011;37695;52.960;6.188;2023-02-28T00:51:27;7.35;;;2.97;;
51614;SDS011;37695;52.960;6.188;2023-02-28T00:53:53;6.53;;;2.85;;
51614;SDS011;37695;52.960;6.188;2023-02-28T00:56:20;4.65;;;2.60;;
51614;SDS011;37695;52.960;6.188;2023-02-28T00:58:45;5.47;;;2.67;;
51614;SDS011;37695;52.960;6.188;2023-02-28T01:01:11;4.97;;;2.58;;
51614;SDS011;37695;52.960;6.188;2023-02-28T01:03:36;4.32;;;2.58;;
51614;SDS011;37695;52.960;6.188;2023-02-28T01:06:03;6.45;;;2.42;;
51614;SDS011;37695;52.960;6.188;2023-02-28T01:08:29;4.47;;;2.58;;
51614;SDS011;37695;52.960;6.188;2023-02-28T01:10:54;5.65;;;2.40;;
51614;SDS011;37695;52.960;6.188;2023-02-28T01:13:20;5.03;;;2.63;;
51614;SDS011;37695;52.960;6.188;2023-02-28T01:15:49;6.72;;;2.60;;
51614;SDS011;37695;52.960;6.188;2023-02-28T01:18:16;5.65;;;2.65;;
51614;SDS011;37695;52.960;6.188;2023-02-28T01:20:42;5.78;;;2.70;;
51614;SDS011;37695;52.960;6.188;2023-02-28T01:23:08;6.40;;;2.40;;
51614;SDS011;37695;52.960;6.188;2023-02-28T01:25:36;7.65;;;3.08;;
51614;SDS011;37695;52.960;6.188;2023-02-28T01:28:02;6.75;;;2.92;;
51614;SDS011;37695;52.960;6.188;2023-02-28T01:30:28;7.85;;;3.20;;
51614;SDS011;37695;52.960;6.188;2023-02-28T01:32:54;5.28;;;2.55;;
51614;SDS011;37695;52.960;6.188;2023-02-28T01:35:19;6.32;;;3.58;;
51614;SDS011;37695;52.960;6.188;2023-02-28T01:37:45;5.65;;;3.20;;
51614;SDS011;37695;52.960;6.188;2023-02-28T01:40:11;6.68;;;3.38;;
51614;SDS011;37695;52.960;6.188;2023-02-28T01:42:37;8.02;;;2.83;;
51614;SDS011;37695;52.960;6.188;2023-02-28T01:47:43;8.60;;;3.15;;
51614;SDS011;37695;52.960;6.188;2023-02-28T01:50:12;7.57;;;3.10;;
51614;SDS011;37695;52.960;6.188;2023-02-28T01:52:42;6.22;;;3.03;;
51614;SDS011;37695;52.960;6.188;2023-02-28T01:55:10;8.32;;;3.38;;
51614;SDS011;37695;52.960;6.188;2023-02-28T01:57:41;7.93;;;3.08;;
51614;SDS011;37695;52.960;6.188;2023-02-28T02:00:12;6.67;;;2.97;;
51614;SDS011;37695;52.960;6.188;2023-02-28T02:02:41;6.15;;;2.83;;
51614;SDS011;37695;52.960;6.188;2023-02-28T02:05:12;4.65;;;2.65;;
51614;SDS011;37695;52.960;6.188;2023-02-28T02:07:41;5.05;;;2.70;;
51614;SDS011;37695;52.960;6.188;2023-02-28T02:10:14;5.95;;;3.05;;
51614;SDS011;37695;52.960;6.188;2023-02-28T02:15:44;6.63;;;3.20;;
51614;SDS011;37695;52.960;6.188;2023-02-28T02:21:13;5.93;;;2.60;;
51614;SDS011;37695;52.960;6.188;2023-02-28T02:26:45;6.65;;;3.00;;
51614;SDS011;37695;52.960;6.188;2023-02-28T02:35:19;4.78;;;3.00;;
51614;SDS011;37695;52.960;6.188;2023-02-28T02:38:08;4.53;;;2.60;;
51614;SDS011;37695;52.960;6.188;2023-02-28T02:40:36;8.07;;;3.08;;
51614;SDS011;37695;52.960;6.188;2023-02-28T02:43:13;5.93;;;2.92;;
51614;SDS011;37695;52.960;6.188;2023-02-28T02:45:47;5.80;;;3.05;;
51614;SDS011;37695;52.960;6.188;2023-02-28T02:48:17;6.95;;;2.90;;
51614;SDS011;37695;52.960;6.188;2023-02-28T02:50:50;4.90;;;3.08;;
51614;SDS011;37695;52.960;6.188;2023-02-28T02:53:26;5.40;;;2.97;;
51614;SDS011;37695;52.960;6.188;2023-02-28T02:55:55;9.57;;;3.20;;
51614;SDS011;37695;52.960;6.188;2023-02-28T02:58:24;7.57;;;2.97;;
51614;SDS011;37695;52.960;6.188;2023-02-28T03:00:55;7.35;;;3.00;;
51614;SDS011;37695;52.960;6.188;2023-02-28T03:03:23;5.90;;;3.10;;
51614;SDS011;37695;52.960;6.188;2023-02-28T03:05:53;6.85;;;3.13;;
51614;SDS011;37695;52.960;6.188;2023-02-28T03:08:24;6.68;;;2.97;;
51614;SDS011;37695;52.960;6.188;2023-02-28T03:10:50;5.45;;;3.10;;
51614;SDS011;37695;52.960;6.188;2023-02-28T03:21:27;7.57;;;3.15;;
51614;SDS011;37695;52.960;6.188;2023-02-28T03:26:39;4.93;;;3.08;;
51614;SDS011;37695;52.960;6.188;2023-02-28T03:29:10;7.10;;;3.13;;
51614;SDS011;37695;52.960;6.188;2023-02-28T03:31:44;6.97;;;3.47;;
51614;SDS011;37695;52.960;6.188;2023-02-28T03:34:26;9.43;;;3.20;;
51614;SDS011;37695;52.960;6.188;2023-02-28T03:36:57;7.63;;;3.60;;
51614;SDS011;37695;52.960;6.188;2023-02-28T03:39:28;7.85;;;3.72;;
51614;SDS011;37695;52.960;6.188;2023-02-28T03:42:22;7.43;;;3.38;;
51614;SDS011;37695;52.960;6.188;2023-02-28T03:44:55;6.85;;;3.25;;
51614;SDS011;37695;52.960;6.188;2023-02-28T03:50:17;6.53;;;3.55;;
51614;SDS011;37695;52.960;6.188;2023-02-28T03:52:58;5.90;;;3.55;;
51614;SDS011;37695;52.960;6.188;2023-02-28T03:55:47;6.35;;;3.08;;
51614;SDS011;37695;52.960;6.188;2023-02-28T03:58:20;5.47;;;3.42;;
51614;SDS011;37695;52.960;6.188;2023-02-28T04:00:52;7.53;;;3.38;;
51614;SDS011;37695;52.960;6.188;2023-02-28T04:03:36;6.70;;;3.03;;
51614;SDS011;37695;52.960;6.188;2023-02-28T04:06:04;4.18;;;2.58;;
51614;SDS011;37695;52.960;6.188;2023-02-28T04:08:32;5.68;;;2.90;;
51614;SDS011;37695;52.960;6.188;2023-02-28T04:11:03;4.18;;;2.65;;
51614;SDS011;37695;52.960;6.188;2023-02-28T04:13:36;4.00;;;2.65;;
51614;SDS011;37695;52.960;6.188;2023-02-28T04:16:02;4.10;;;2.88;;
51614;SDS011;37695;52.960;6.188;2023-02-28T04:21:03;5.45;;;2.45;;
51614;SDS011;37695;52.960;6.188;2023-02-28T04:23:29;4.88;;;2.72;;
51614;SDS011;37695;52.960;6.188;2023-02-28T04:25:55;7.18;;;2.95;;
51614;SDS011;37695;52.960;6.188;2023-02-28T04:28:21;6.05;;;3.20;;
51614;SDS011;37695;52.960;6.188;2023-02-28T04:30:46;6.15;;;3.08;;
51614;SDS011;37695;52.960;6.188;2023-02-28T04:33:12;6.13;;;2.83;;
51614;SDS011;37695;52.960;6.188;2023-02-28T04:35:37;5.10;;;3.00;;
51614;SDS011;37695;52.960;6.188;2023-02-28T04:38:03;4.50;;;2.90;;
51614;SDS011;37695;52.960;6.188;2023-02-28T04:40:28;4.88;;;3.10;;
51614;SDS011;37695;52.960;6.188;2023-02-28T04:42:54;4.70;;;2.90;;
51614;SDS011;37695;52.960;6.188;2023-02-28T04:45:19;4.38;;;2.72;;
51614;SDS011;37695;52.960;6.188;2023-02-28T04:47:45;4.40;;;2.85;;
51614;SDS011;37695;52.960;6.188;2023-02-28T04:50:10;4.63;;;2.70;;
51614;SDS011;37695;52.960;6.188;2023-02-28T04:52:36;5.82;;;2.67;;
51614;SDS011;37695;52.960;6.188;2023-02-28T04:55:02;4.75;;;2.88;;
51614;SDS011;37695;52.960;6.188;2023-02-28T04:57:27;4.90;;;2.78;;
51614;SDS011;37695;52.960;6.188;2023-02-28T04:59:53;7.18;;;3.53;;
51614;SDS011;37695;52.960;6.188;2023-02-28T05:02:18;7.05;;;3.72;;
51614;SDS011;37695;52.960;6.188;2023-02-28T05:04:46;8.30;;;4.40;;
51614;SDS011;37695;52.960;6.188;2023-02-28T05:07:11;7.88;;;4.43;;
51614;SDS011;37695;52.960;6.188;2023-02-28T05:09:37;7.20;;;4.95;;
51614;SDS011;37695;52.960;6.188;2023-02-28T05:12:02;12.90;;;5.68;;
51614;SDS011;37695;52.960;6.188;2023-02-28T05:14:28;7.47;;;5.10;;
51614;SDS011;37695;52.960;6.188;2023-02-28T05:16:53;8.32;;;5.35;;
51614;SDS011;37695;52.960;6.188;2023-02-28T05:19:19;9.48;;;6.35;;
51614;SDS011;37695;52.960;6.188;2023-02-28T05:21:53;8.50;;;6.00;;
51614;SDS011;37695;52.960;6.188;2023-02-28T05:24:19;10.38;;;6.20;;
51614;SDS011;37695;52.960;6.188;2023-02-28T05:26:49;7.72;;;5.75;;
51614;SDS011;37695;52.960;6.188;2023-02-28T05:29:16;8.85;;;5.80;;
51614;SDS011;37695;52.960;6.188;2023-02-28T05:31:42;9.45;;;6.18;;
51614;SDS011;37695;52.960;6.188;2023-02-28T05:34:08;7.32;;;5.70;;
51614;SDS011;37695;52.960;6.188;2023-02-28T05:36:36;9.52;;;6.30;;
51614;SDS011;37695;52.960;6.188;2023-02-28T05:39:02;8.80;;;5.80;;
51614;SDS011;37695;52.960;6.188;2023-02-28T05:41:28;8.35;;;5.57;;
51614;SDS011;37695;52.960;6.188;2023-02-28T05:43:53;8.85;;;6.47;;
51614;SDS011;37695;52.960;6.188;2023-02-28T05:46:19;9.35;;;6.13;;
51614;SDS011;37695;52.960;6.188;2023-02-28T05:48:46;10.27;;;6.78;;
51614;SDS011;37695;52.960;6.188;2023-02-28T05:51:12;10.20;;;6.03;;
51614;SDS011;37695;52.960;6.188;2023-02-28T05:53:37;8.13;;;5.78;;
51614;SDS011;37695;52.960;6.188;2023-02-28T05:56:03;8.05;;;5.68;;
51614;SDS011;37695;52.960;6.188;2023-02-28T05:58:29;8.75;;;6.03;;
51614;SDS011;37695;52.960;6.188;2023-02-28T06:00:58;9.25;;;6.22;;
51614;SDS011;37695;52.960;6.188;2023-02-28T06:03:25;10.73;;;6.95;;
51614;SDS011;37695;52.960;6.188;2023-02-28T06:05:50;10.25;;;6.68;;
51614;SDS011;37695;52.960;6.188;2023-02-28T06:08:16;9.95;;;6.70;;
51614;SDS011;37695;52.960;6.188;2023-02-28T06:10:42;8.55;;;5.95;;
51614;SDS011;37695;52.960;6.188;2023-02-28T06:13:07;10.80;;;6.65;;
51614;SDS011;37695;52.960;6.188;2023-02-28T06:15:33;9.52;;;6.70;;
51614;SDS011;37695;52.960;6.188;2023-02-28T06:17:59;9.75;;;6.55;;
51614;SDS011;37695;52.960;6.188;2023-02-28T06:20:25;9.13;;;6.50;;
51614;SDS011;37695;52.960;6.188;2023-02-28T06:22:54;9.18;;;6.43;;
51614;SDS011;37695;52.960;6.188;2023-02-28T06:25:21;9.90;;;6.70;;
51614;SDS011;37695;52.960;6.188;2023-02-28T06:27:46;8.45;;;6.25;;
51614;SDS011;37695;52.960;6.188;2023-02-28T06:30:13;10.70;;;6.97;;
51614;SDS011;37695;52.960;6.188;2023-02-28T06:32:39;11.40;;;6.70;;
51614;SDS011;37695;52.960;6.188;2023-02-28T06:35:04;10.35;;;7.30;;
51614;SDS011;37695;52.960;6.188;2023-02-28T06:37:30;9.02;;;6.63;;
51614;SDS011;37695;52.960;6.188;2023-02-28T06:39:57;10.13;;;6.80;;
51614;SDS011;37695;52.960;6.188;2023-02-28T06:42:23;10.27;;;7.25;;
51614;SDS011;37695;52.960;6.188;2023-02-28T06:44:54;10.13;;;6.70;;
51614;SDS011;37695;52.960;6.188;2023-02-28T06:47:20;10.90;;;6.70;;
51614;SDS011;37695;52.960;6.188;2023-02-28T06:49:46;10.00;;;6.82;;
51614;SDS011;37695;52.960;6.188;2023-02-28T06:52:12;12.68;;;7.60;;
51614;SDS011;37695;52.960;6.188;2023-02-28T06:54:37;10.85;;;6.68;;
51614;SDS011;37695;52.960;6.188;2023-02-28T06:57:03;11.10;;;6.50;;
51614;SDS011;37695;52.960;6.188;2023-02-28T06:59:29;11.45;;;7.28;;
51614;SDS011;37695;52.960;6.188;2023-02-28T07:01:55;9.90;;;6.25;;
51614;SDS011;37695;52.960;6.188;2023-02-28T07:04:21;10.05;;;6.95;;
51614;SDS011;37695;52.960;6.188;2023-02-28T07:06:47;9.63;;;6.30;;
51614;SDS011;37695;52.960;6.188;2023-02-28T07:09:13;9.30;;;6.43;;
51614;SDS011;37695;52.960;6.188;2023-02-28T07:11:39;9.63;;;6.60;;
51614;SDS011;37695;52.960;6.188;2023-02-28T07:14:05;12.10;;;7.10;;
51614;SDS011;37695;52.960;6.188;2023-02-28T07:16:31;9.68;;;6.85;;
51614;SDS011;37695;52.960;6.188;2023-02-28T07:18:57;9.55;;;6.40;;
51614;SDS011;37695;52.960;6.188;2023-02-28T07:21:23;9.93;;;6.85;;
51614;SDS011;37695;52.960;6.188;2023-02-28T07:23:48;9.38;;;6.75;;
51614;SDS011;37695;52.960;6.188;2023-02-28T07:26:14;9.13;;;6.82;;
51614;SDS011;37695;52.960;6.188;2023-02-28T07:28:42;11.98;;;8.13;;
51614;SDS011;37695;52.960;6.188;2023-02-28T07:31:08;11.13;;;8.18;;
51614;SDS011;37695;52.960;6.188;2023-02-28T07:33:35;10.75;;;7.40;;
51614;SDS011;37695;52.960;6.188;2023-02-28T07:36:05;12.02;;;6.85;;
51614;SDS011;37695;52.960;6.188;2023-02-28T07:38:36;10.27;;;7.22;;
51614;SDS011;37695;52.960;6.188;2023-02-28T07:41:02;12.15;;;7.63;;
51614;SDS011;37695;52.960;6.188;2023-02-28T07:43:31;11.15;;;8.18;;
51614;SDS011;37695;52.960;6.188;2023-02-28T07:46:01;13.00;;;8.00;;
51614;SDS011;37695;52.960;6.188;2023-02-28T07:48:31;10.70;;;7.55;;
51614;SDS011;37695;52.960;6.188;2023-02-28T07:50:57;10.02;;;7.10;;
51614;SDS011;37695;52.960;6.188;2023-02-28T07:53:23;11.20;;;7.47;;
51614;SDS011;37695;52.960;6.188;2023-02-28T07:55:49;10.02;;;7.70;;
51614;SDS011;37695;52.960;6.188;2023-02-28T07:58:14;13.23;;;8.02;;
51614;SDS011;37695;52.960;6.188;2023-02-28T08:00:43;10.85;;;7.30;;
51614;SDS011;37695;52.960;6.188;2023-02-28T08:03:11;11.35;;;7.90;;
51614;SDS011;37695;52.960;6.188;2023-02-28T08:05:40;10.68;;;7.13;;
51614;SDS011;37695;52.960;6.188;2023-02-28T08:08:06;10.25;;;7.18;;
51614;SDS011;37695;52.960;6.188;2023-02-28T08:10:32;9.70;;;7.45;;
51614;SDS011;37695;52.960;6.188;2023-02-28T08:12:58;9.88;;;7.30;;
51614;SDS011;37695;52.960;6.188;2023-02-28T08:15:24;11.50;;;8.18;;
51614;SDS011;37695;52.960;6.188;2023-02-28T08:17:49;11.23;;;8.10;;
51614;SDS011;37695;52.960;6.188;2023-02-28T08:20:15;11.10;;;7.93;;
51614;SDS011;37695;52.960;6.188;2023-02-28T08:22:40;10.68;;;7.10;;
51614;SDS011;37695;52.960;6.188;2023-02-28T08:25:07;9.77;;;7.60;;
51614;SDS011;37695;52.960;6.188;2023-02-28T08:27:33;11.10;;;8.30;;
51614;SDS011;37695;52.960;6.188;2023-02-28T08:29:59;10.95;;;8.23;;
51614;SDS011;37695;52.960;6.188;2023-02-28T08:32:24;11.32;;;7.68;;
51614;SDS011;37695;52.960;6.188;2023-02-28T08:34:50;13.18;;;8.52;;
51614;SDS011;37695;52.960;6.188;2023-02-28T08:37:16;9.63;;;7.20;;
51614;SDS011;37695;52.960;6.188;2023-02-28T08:39:41;10.88;;;8.38;;
51614;SDS011;37695;52.960;6.188;2023-02-28T08:42:07;11.45;;;8.40;;
51614;SDS011;37695;52.960;6.188;2023-02-28T08:44:32;11.30;;;7.47;;
51614;SDS011;37695;52.960;6.188;2023-02-28T08:46:58;11.25;;;8.23;;
51614;SDS011;37695;52.960;6.188;2023-02-28T08:49:23;11.25;;;7.85;;
51614;SDS011;37695;52.960;6.188;2023-02-28T08:51:49;9.75;;;6.90;;
51614;SDS011;37695;52.960;6.188;2023-02-28T08:54:14;11.77;;;7.78;;
51614;SDS011;37695;52.960;6.188;2023-02-28T08:56:44;10.38;;;7.57;;
51614;SDS011;37695;52.960;6.188;2023-02-28T08:59:11;10.23;;;7.82;;
51614;SDS011;37695;52.960;6.188;2023-02-28T09:01:37;10.80;;;7.50;;
51614;SDS011;37695;52.960;6.188;2023-02-28T09:04:03;10.05;;;7.53;;
51614;SDS011;37695;52.960;6.188;2023-02-28T09:06:28;10.43;;;7.30;;
51614;SDS011;37695;52.960;6.188;2023-02-28T09:08:57;10.57;;;7.43;;
51614;SDS011;37695;52.960;6.188;2023-02-28T09:11:24;9.82;;;7.55;;
51614;SDS011;37695;52.960;6.188;2023-02-28T09:13:50;9.75;;;7.45;;
51614;SDS011;37695;52.960;6.188;2023-02-28T09:16:15;10.52;;;7.22;;
51614;SDS011;37695;52.960;6.188;2023-02-28T09:18:42;10.85;;;7.18;;
51614;SDS011;37695;52.960;6.188;2023-02-28T09:21:09;11.07;;;7.38;;
51614;SDS011;37695;52.960;6.188;2023-02-28T09:23:41;10.07;;;7.63;;
51614;SDS011;37695;52.960;6.188;2023-02-28T09:26:07;10.82;;;7.82;;
51614;SDS011;37695;52.960;6.188;2023-02-28T09:28:37;10.85;;;7.78;;
51614;SDS011;37695;52.960;6.188;2023-02-28T09:31:03;10.93;;;8.35;;
51614;SDS011;37695;52.960;6.188;2023-02-28T09:33:29;9.63;;;7.70;;
51614;SDS011;37695;52.960;6.188;2023-02-28T09:35:59;10.10;;;7.45;;
51614;SDS011;37695;52.960;6.188;2023-02-28T09:38:26;12.77;;;7.80;;
51614;SDS011;37695;52.960;6.188;2023-02-28T09:40:53;10.95;;;7.60;;
51614;SDS011;37695;52.960;6.188;2023-02-28T09:43:23;12.05;;;7.97;;
51614;SDS011;37695;52.960;6.188;2023-02-28T09:45:52;11.95;;;7.53;;
51614;SDS011;37695;52.960;6.188;2023-02-28T09:48:34;9.63;;;7.10;;
51614;SDS011;37695;52.960;6.188;2023-02-28T09:51:28;12.38;;;7.13;;
51614;SDS011;37695;52.960;6.188;2023-02-28T09:53:58;10.50;;;7.43;;
51614;SDS011;37695;52.960;6.188;2023-02-28T09:56:25;10.00;;;7.53;;
51614;SDS011;37695;52.960;6.188;2023-02-28T09:59:01;10.30;;;7.32;;
51614;SDS011;37695;52.960;6.188;2023-02-28T10:01:54;9.82;;;6.70;;
51614;SDS011;37695;52.960;6.188;2023-02-28T10:04:46;9.40;;;5.93;;
51614;SDS011;37695;52.960;6.188;2023-02-28T10:10:24;8.02;;;5.85;;
51614;SDS011;37695;52.960;6.188;2023-02-28T10:12:55;9.27;;;5.47;;
51614;SDS011;37695;52.960;6.188;2023-02-28T10:15:24;7.78;;;5.40;;
51614;SDS011;37695;52.960;6.188;2023-02-28T10:18:00;8.40;;;5.35;;
51614;SDS011;37695;52.960;6.188;2023-02-28T10:20:29;8.43;;;5.75;;
51614;SDS011;37695;52.960;6.188;2023-02-28T10:23:09;7.50;;;5.43;;
51614;SDS011;37695;52.960;6.188;2023-02-28T10:25:44;7.55;;;5.05;;
51614;SDS011;37695;52.960;6.188;2023-02-28T10:28:15;7.18;;;5.25;;
51614;SDS011;37695;52.960;6.188;2023-02-28T10:30:50;7.88;;;4.90;;
51614;SDS011;37695;52.960;6.188;2023-02-28T10:33:19;8.52;;;4.82;;
51614;SDS011;37695;52.960;6.188;2023-02-28T10:35:46;9.15;;;4.85;;
51614;SDS011;37695;52.960;6.188;2023-02-28T10:38:22;6.28;;;4.22;;
51614;SDS011;37695;52.960;6.188;2023-02-28T10:44:14;6.97;;;4.38;;
51614;SDS011;37695;52.960;6.188;2023-02-28T10:46:46;6.57;;;4.15;;
51614;SDS011;37695;52.960;6.188;2023-02-28T10:49:22;6.55;;;4.18;;
51614;SDS011;37695;52.960;6.188;2023-02-28T10:51:52;6.88;;;4.15;;
51614;SDS011;37695;52.960;6.188;2023-02-28T10:54:24;6.20;;;4.32;;
51614;SDS011;37695;52.960;6.188;2023-02-28T10:59:44;5.47;;;3.58;;
51614;SDS011;37695;52.960;6.188;2023-02-28T11:02:29;8.82;;;3.97;;
51614;SDS011;37695;52.960;6.188;2023-02-28T11:04:57;5.30;;;3.30;;
51614;SDS011;37695;52.960;6.188;2023-02-28T11:07:23;7.13;;;3.72;;
51614;SDS011;37695;52.960;6.188;2023-02-28T11:09:51;7.28;;;3.80;;
51614;SDS011;37695;52.960;6.188;2023-02-28T11:12:26;6.40;;;3.63;;
51614;SDS011;37695;52.960;6.188;2023-02-28T11:14:55;5.72;;;3.28;;
51614;SDS011;37695;52.960;6.188;2023-02-28T11:17:26;8.23;;;3.90;;
51614;SDS011;37695;52.960;6.188;2023-02-28T11:19:55;4.55;;;3.03;;
51614;SDS011;37695;52.960;6.188;2023-02-28T11:22:28;4.78;;;3.15;;
51614;SDS011;37695;52.960;6.188;2023-02-28T11:24:58;5.00;;;3.30;;
51614;SDS011;37695;52.960;6.188;2023-02-28T11:29:54;5.72;;;3.15;;
51614;SDS011;37695;52.960;6.188;2023-02-28T11:32:24;6.57;;;3.60;;
51614;SDS011;37695;52.960;6.188;2023-02-28T11:35:01;4.85;;;3.05;;
51614;SDS011;37695;52.960;6.188;2023-02-28T11:37:36;5.97;;;2.95;;
51614;SDS011;37695;52.960;6.188;2023-02-28T11:40:13;7.45;;;3.10;;
51614;SDS011;37695;52.960;6.188;2023-02-28T11:50:47;5.22;;;3.13;;
51614;SDS011;37695;52.960;6.188;2023-02-28T11:59:22;6.28;;;3.38;;
51614;SDS011;37695;52.960;6.188;2023-02-28T12:02:24;5.60;;;3.20;;
51614;SDS011;37695;52.960;6.188;2023-02-28T12:07:58;4.45;;;2.75;;
51614;SDS011;37695;52.960;6.188;2023-02-28T12:10:28;5.30;;;3.15;;
51614;SDS011;37695;52.960;6.188;2023-02-28T12:18:49;5.00;;;3.03;;
51614;SDS011;37695;52.960;6.188;2023-02-28T12:27:10;4.70;;;3.00;;
51614;SDS011;37695;52.960;6.188;2023-02-28T12:29:43;6.20;;;3.22;;
51614;SDS011;37695;52.960;6.188;2023-02-28T12:32:20;4.50;;;3.20;;
51614;SDS011;37695;52.960;6.188;2023-02-28T12:34:49;5.43;;;3.13;;
51614;SDS011;37695;52.960;6.188;2023-02-28T12:37:22;6.07;;;3.38;;
51614;SDS011;37695;52.960;6.188;2023-02-28T12:39:54;5.55;;;3.42;;
51614;SDS011;37695;52.960;6.188;2023-02-28T12:42:27;4.82;;;3.35;;
51614;SDS011;37695;52.960;6.188;2023-02-28T12:44:58;8.82;;;3.85;;
51614;SDS011;37695;52.960;6.188;2023-02-28T12:47:26;5.47;;;3.33;;
51614;SDS011;37695;52.960;6.188;2023-02-28T12:49:53;6.07;;;3.42;;
51614;SDS011;37695;52.960;6.188;2023-02-28T12:52:28;6.05;;;3.28;;
51614;SDS011;37695;52.960;6.188;2023-02-28T13:01:03;5.35;;;3.45;;
51614;SDS011;37695;52.960;6.188;2023-02-28T13:06:26;5.95;;;3.30;;
51614;SDS011;37695;52.960;6.188;2023-02-28T13:11:38;6.57;;;3.28;;
51614;SDS011;37695;52.960;6.188;2023-02-28T13:14:05;6.60;;;3.60;;
51614;SDS011;37695;52.960;6.188;2023-02-28T13:16:51;5.95;;;3.40;;
51614;SDS011;37695;52.960;6.188;2023-02-28T13:19:25;6.72;;;3.85;;
51614;SDS011;37695;52.960;6.188;2023-02-28T13:21:52;5.68;;;3.83;;
51614;SDS011;37695;52.960;6.188;2023-02-28T13:24:39;6.60;;;3.75;;
51614;SDS011;37695;52.960;6.188;2023-02-28T13:47:35;5.97;;;3.20;;
51614;SDS011;37695;52.960;6.188;2023-02-28T13:50:21;5.85;;;3.35;;
51614;SDS011;37695;52.960;6.188;2023-02-28T14:00:58;5.60;;;3.58;;
51614;SDS011;37695;52.960;6.188;2023-02-28T14:03:55;6.03;;;3.50;;
51614;SDS011;37695;52.960;6.188;2023-02-28T14:06:30;5.18;;;3.67;;
51614;SDS011;37695;52.960;6.188;2023-02-28T14:09:01;6.82;;;3.80;;
51614;SDS011;37695;52.960;6.188;2023-02-28T14:11:39;6.65;;;3.25;;
51614;SDS011;37695;52.960;6.188;2023-02-28T14:14:06;6.30;;;3.13;;
51614;SDS011;37695;52.960;6.188;2023-02-28T14:21:51;8.13;;;3.63;;
51614;SDS011;37695;52.960;6.188;2023-02-28T14:24:49;5.57;;;3.53;;
51614;SDS011;37695;52.960;6.188;2023-02-28T14:33:13;6.32;;;3.83;;
51614;SDS011;37695;52.960;6.188;2023-02-28T14:36:09;6.40;;;3.42;;
51614;SDS011;37695;52.960;6.188;2023-02-28T14:41:34;5.57;;;3.40;;
51614;SDS011;37695;52.960;6.188;2023-02-28T14:44:12;5.55;;;3.42;;
51614;SDS011;37695;52.960;6.188;2023-02-28T14:47:01;4.68;;;3.20;;
51614;SDS011;37695;52.960;6.188;2023-02-28T14:50:03;6.88;;;3.53;;
51614;SDS011;37695;52.960;6.188;2023-02-28T14:52:23;7.65;;;3.70;;
51614;SDS011;37695;52.960;6.188;2023-02-28T14:54:53;6.68;;;4.03;;
51614;SDS011;37695;52.960;6.188;2023-02-28T14:57:28;7.75;;;4.00;;
51614;SDS011;37695;52.960;6.188;2023-02-28T15:00:15;7.03;;;3.63;;
51614;SDS011;37695;52.960;6.188;2023-02-28T15:02:42;6.97;;;3.85;;
51614;SDS011;37695;52.960;6.188;2023-02-28T15:07:46;8.88;;;4.30;;
51614;SDS011;37695;52.960;6.188;2023-02-28T15:10:15;5.93;;;3.85;;
51614;SDS011;37695;52.960;6.188;2023-02-28T15:12:41;6.05;;;3.53;;
51614;SDS011;37695;52.960;6.188;2023-02-28T15:15:15;6.43;;;3.83;;
51614;SDS011;37695;52.960;6.188;2023-02-28T15:17:42;5.75;;;3.40;;
51614;SDS011;37695;52.960;6.188;2023-02-28T15:20:11;6.07;;;3.85;;
51614;SDS011;37695;52.960;6.188;2023-02-28T15:22:39;8.80;;;3.75;;
51614;SDS011;37695;52.960;6.188;2023-02-28T15:25:05;7.05;;;4.50;;
51614;SDS011;37695;52.960;6.188;2023-02-28T15:27:33;6.55;;;4.03;;
51614;SDS011;37695;52.960;6.188;2023-02-28T15:30:07;7.40;;;4.13;;
51614;SDS011;37695;52.960;6.188;2023-02-28T15:32:39;5.93;;;3.92;;
51614;SDS011;37695;52.960;6.188;2023-02-28T15:37:54;6.20;;;4.40;;
51614;SDS011;37695;52.960;6.188;2023-02-28T15:40:29;7.00;;;4.22;;
51614;SDS011;37695;52.960;6.188;2023-02-28T15:43:06;6.82;;;4.45;;
51614;SDS011;37695;52.960;6.188;2023-02-28T15:45:33;6.22;;;4.20;;
51614;SDS011;37695;52.960;6.188;2023-02-28T15:48:02;7.30;;;3.97;;
51614;SDS011;37695;52.960;6.188;2023-02-28T15:50:28;6.25;;;3.75;;
51614;SDS011;37695;52.960;6.188;2023-02-28T15:52:54;5.95;;;4.05;;
51614;SDS011;37695;52.960;6.188;2023-02-28T15:55:21;6.80;;;4.10;;
51614;SDS011;37695;52.960;6.188;2023-02-28T15:57:53;6.38;;;3.78;;
51614;SDS011;37695;52.960;6.188;2023-02-28T16:00:22;7.90;;;3.88;;
51614;SDS011;37695;52.960;6.188;2023-02-28T16:02:50;6.38;;;3.80;;
51614;SDS011;37695;52.960;6.188;2023-02-28T16:05:20;5.55;;;3.83;;
51614;SDS011;37695;52.960;6.188;2023-02-28T16:08:13;6.78;;;3.88;;
51614;SDS011;37695;52.960;6.188;2023-02-28T16:10:40;6.03;;;4.03;;
51614;SDS011;37695;52.960;6.188;2023-02-28T16:13:06;7.43;;;4.10;;
51614;SDS011;37695;52.960;6.188;2023-02-28T16:15:38;7.15;;;4.45;;
51614;SDS011;37695;52.960;6.188;2023-02-28T16:18:07;6.10;;;4.20;;
51614;SDS011;37695;52.960;6.188;2023-02-28T16:20:36;6.03;;;3.92;;
51614;SDS011;37695;52.960;6.188;2023-02-28T16:23:01;5.97;;;3.90;;
51614;SDS011;37695;52.960;6.188;2023-02-28T16:25:34;6.55;;;4.45;;
51614;SDS011;37695;52.960;6.188;2023-02-28T16:28:05;6.68;;;4.22;;
51614;SDS011;37695;52.960;6.188;2023-02-28T16:30:39;5.78;;;3.70;;
51614;SDS011;37695;52.960;6.188;2023-02-28T16:33:06;6.95;;;3.97;;
51614;SDS011;37695;52.960;6.188;2023-02-28T16:35:33;6.60;;;4.18;;
51614;SDS011;37695;52.960;6.188;2023-02-28T16:37:58;7.20;;;4.35;;
51614;SDS011;37695;52.960;6.188;2023-02-28T16:40:25;6.88;;;4.45;;
51614;SDS011;37695;52.960;6.188;2023-02-28T16:42:51;7.03;;;4.35;;
51614;SDS011;37695;52.960;6.188;2023-02-28T16:45:21;8.15;;;4.13;;
51614;SDS011;37695;52.960;6.188;2023-02-28T16:47:48;7.65;;;4.13;;
51614;SDS011;37695;52.960;6.188;2023-02-28T16:50:19;5.00;;;3.25;;
51614;SDS011;37695;52.960;6.188;2023-02-28T16:52:47;7.68;;;4.22;;
51614;SDS011;37695;52.960;6.188;2023-02-28T16:55:15;5.70;;;3.60;;
51614;SDS011;37695;52.960;6.188;2023-02-28T16:57:42;5.82;;;3.97;;
51614;SDS011;37695;52.960;6.188;2023-02-28T17:00:14;7.90;;;4.05;;
51614;SDS011;37695;52.960;6.188;2023-02-28T17:02:40;5.97;;;3.97;;
51614;SDS011;37695;52.960;6.188;2023-02-28T17:05:06;6.03;;;4.25;;
51614;SDS011;37695;52.960;6.188;2023-02-28T17:07:31;7.43;;;4.75;;
51614;SDS011;37695;52.960;6.188;2023-02-28T17:09:57;7.50;;;4.68;;
51614;SDS011;37695;52.960;6.188;2023-02-28T17:12:24;6.18;;;4.40;;